Latest Weather Observations for Barrow Island

IDW60801

Issued at 7:05 pm WST Monday 1 September 2014 (issued every 30 minutes, with the page automatically refreshed every 10 minutes)

About weather observations | Map of weather stations | Latest weather observations for WA | Other Formats
Station Details ID: 005094 Name: BARROW ISLAND AIRPORT Lat: -20.88 Lon: 115.41 Height: 6.4 m
Data from the previous 72 hours. | See also: Recent months at Barrow Island
Date/Time
WST
Temp
°C
App
Temp
°C
Dew
Point
Rel
Hum
%
Delta-T
°C
Wind Press
QNH
hPa
Press
MSL
hPa
Rain
since 9 am
mm
Dir
 
Spd
km/h
Gust
km/h
Spd
kts
Gust
kts
01/07:00pm 22.3 21.4 13.6 58 5.0 W 11 13 6 7 1014.9 - 0.0
01/06:30pm 23.7 22.6 13.0 51 6.2 WNW 11 13 6 7 1014.4 - 0.0
01/06:00pm 25.5 26.7 15.8 55 5.9 S 4 6 2 3 1014.1 1014.1 0.0
01/05:30pm 25.8 26.5 18.0 62 4.9 SSE 11 13 6 7 1013.7 - 0.0
01/05:00pm 27.1 27.4 16.1 51 6.8 SSE 9 11 5 6 1013.7 - 0.0
01/04:30pm 27.7 26.4 10.0 33 9.9 ESE 7 13 4 7 1013.5 - 0.0
01/04:00pm 27.6 25.9 12.4 39 8.8 SE 13 17 7 9 1013.6 - 0.0
01/03:30pm 27.5 26.3 11.5 37 9.2 SE 9 13 5 7 1013.6 - 0.0
01/03:00pm 27.4 24.7 15.7 48 7.2 NE 24 28 13 15 1013.6 1013.6 0.0
01/02:30pm 27.6 23.5 12.8 40 8.7 NE 26 28 14 15 1013.7 - 0.0
01/02:00pm 27.5 23.8 13.8 43 8.1 NE 26 28 14 15 1013.9 - 0.0
01/01:30pm 27.5 23.9 14.2 44 8.0 NE 26 28 14 15 1014.2 - 0.0
01/01:00pm 27.4 24.4 14.8 46 7.6 NE 24 28 13 15 1014.4 - 0.0
01/12:30pm 27.1 24.4 14.5 46 7.6 NE 22 26 12 14 1014.8 - 0.0
01/12:00pm 27.3 24.6 13.6 43 8.1 NE 20 24 11 13 1015.3 1015.3 0.0
01/11:30am 26.7 25.2 15.4 50 6.9 NE 17 19 9 10 1015.5 - 0.0
01/11:00am 26.5 24.2 12.9 43 7.9 NE 17 20 9 11 1015.9 - 0.0
01/10:30am 25.7 25.0 14.2 49 6.8 ENE 11 15 6 8 1015.9 - 0.0
01/10:00am 25.2 24.0 12.8 46 7.2 E 11 13 6 7 1016.0 - 0.0
01/09:30am 24.9 24.3 13.5 49 6.7 E 9 11 5 6 1016.0 - 0.0
01/09:00am 24.6 24.1 13.8 51 6.3 SE 9 13 5 7 1015.8 1015.8 0.2
01/08:30am 24.1 23.2 12.7 49 6.6 ESE 9 11 5 6 1015.6 - 0.2
01/08:00am 23.5 22.7 12.8 51 6.1 ESE 9 11 5 6 1015.3 - 0.2
01/07:30am 22.7 21.8 12.6 53 5.8 ESE 9 11 5 6 1015.4 - 0.2
01/07:00am 21.3 20.1 12.7 58 4.9 SE 11 13 6 7 1015.2 - 0.2
01/06:30am 20.4 19.2 12.9 62 4.3 SE 11 13 6 7 1014.9 - 0.2
01/06:00am 20.3 19.1 12.8 62 4.2 SSE 11 13 6 7 1014.7 1014.7 0.2
01/05:30am 20.5 19.9 14.6 69 3.4 S 11 13 6 7 1014.6 - 0.2
01/05:00am 20.6 19.6 14.7 69 3.5 SSE 13 17 7 9 1014.5 - 0.2
01/04:30am 20.7 20.5 14.8 69 3.5 SSE 9 11 5 6 1014.3 - 0.2
01/04:00am 20.7 20.5 15.7 73 3.0 SSE 11 13 6 7 1014.1 - 0.2
01/03:30am 20.6 20.6 16.2 76 2.6 S 11 11 6 6 1014.0 - 0.2
01/03:00am 20.8 21.2 17.2 80 2.2 S 11 13 6 7 1014.2 1014.2 0.2
01/02:30am 20.2 20.8 18.5 90 1.1 SSW 13 15 7 8 1014.3 - 0.2
01/02:00am 18.0 17.9 16.9 93 0.7 WSW 13 15 7 8 1014.5 - 0.2
01/01:30am 18.2 17.6 16.7 91 0.9 W 15 17 8 9 1014.6 - 0.2
01/01:00am 18.7 18.0 17.4 92 0.8 W 17 19 9 10 1014.7 - 0.2
01/12:30am 18.2 17.6 16.7 91 0.9 WNW 15 17 8 9 1015.0 - 0.2
01/12:00am 18.4 17.4 16.7 90 1.0 WNW 17 19 9 10 1015.2 1015.2 0.2
 
Date/Time
WST
Temp
°C
App
Temp
°C
Dew
Point
Rel
Hum
%
Delta-T
°C
Wind Press
QNH
hPa
Press
MSL
hPa
Rain
since 9 am
mm
Dir
 
Spd
km/h
Gust
km/h
Spd
kts
Gust
kts
31/11:30pm 18.7 17.9 17.0 90 1.0 WNW 17 19 9 10 1015.3 - 0.2
31/11:00pm 19.2 18.4 17.2 88 1.2 W 17 19 9 10 1015.4 - 0.2
31/10:30pm 19.0 18.0 16.6 86 1.4 WNW 17 19 9 10 1015.1 - 0.2
31/10:00pm 19.5 18.6 16.9 85 1.6 NW 17 17 9 9 1015.3 - 0.2
31/09:30pm 19.7 18.8 16.9 84 1.7 NW 17 19 9 10 1015.3 - 0.2
31/09:00pm 19.3 17.6 15.8 80 2.1 NW 19 20 10 11 1015.2 1015.2 0.2
31/08:30pm 20.2 18.8 15.6 75 2.7 WNW 17 19 9 10 1015.1 - 0.2
31/08:00pm 20.4 19.3 14.3 68 3.5 WNW 13 15 7 8 1014.9 - 0.2
31/07:30pm 20.7 19.6 13.2 62 4.3 WNW 11 11 6 6 1014.6 - 0.2
31/07:00pm 22.0 21.4 14.6 63 4.4 W 11 13 6 7 1014.4 - 0.2
31/06:30pm 22.9 22.1 15.0 61 4.7 W 13 13 7 7 1014.1 - 0.2
31/06:00pm 24.9 24.6 15.5 56 5.7 SW 11 13 6 7 1013.8 1013.8 0.2
31/05:30pm 26.4 26.4 14.2 47 7.3 SSW 7 9 4 5 1013.6 - 0.2
31/05:00pm 26.0 24.8 15.1 51 6.6 S 15 20 8 11 1013.4 - 0.2
31/04:30pm 26.4 28.7 19.8 67 4.3 S 7 9 4 5 1013.3 - 0.2
31/04:00pm 25.9 27.1 17.3 59 5.4 S 7 9 4 5 1013.3 - 0.2
31/03:30pm 26.1 27.0 16.6 55 5.9 S 7 11 4 6 1013.3 - 0.2
31/03:00pm 26.6 26.2 15.3 50 6.9 S 11 11 6 6 1013.3 1013.3 0.2
31/02:30pm 26.2 26.5 15.9 53 6.3 SSE 9 13 5 7 1013.5 - 0.2
31/02:00pm 26.0 26.2 15.7 53 6.3 SSE 9 11 5 6 1013.7 - 0.2
31/01:30pm 25.8 25.6 13.6 47 7.2 S 7 9 4 5 1014.1 - 0.2
31/01:00pm 25.8 24.3 13.0 45 7.5 S 13 15 7 8 1014.3 - 0.2
31/12:30pm 25.2 23.9 12.4 45 7.4 S 11 13 6 7 1014.8 - 0.2
31/12:00pm 25.4 24.0 13.3 47 7.1 S 13 15 7 8 1015.2 1015.2 0.2
31/11:30am 25.2 23.4 12.1 44 7.5 S 13 17 7 9 1015.7 - 0.2
31/11:00am 25.0 22.8 12.2 44 7.3 S 15 17 8 9 1016.0 - 0.2
31/10:30am 24.4 22.6 12.0 46 7.1 SSE 13 15 7 8 1016.3 - 0.2
31/10:00am 24.2 22.9 12.5 48 6.7 SSE 11 13 6 7 1016.6 - 0.2
31/09:30am 23.7 22.4 12.4 49 6.5 S 11 13 6 7 1016.6 - 0.0
31/09:00am 23.1 21.1 11.5 48 6.5 S 13 17 7 9 1016.6 1016.6 0.0
31/08:30am 22.5 19.0 10.9 48 6.4 SSE 20 24 11 13 1016.4 - 0.0
31/08:00am 22.1 18.7 11.2 50 6.0 S 20 22 11 12 1016.2 - 0.0
31/07:30am 21.6 18.2 10.7 50 6.0 SSE 19 22 10 12 1016.2 - 0.0
31/07:00am 21.1 17.7 11.2 53 5.5 S 20 24 11 13 1015.8 - 0.0
31/06:30am 20.6 18.6 12.6 60 4.5 S 15 17 8 9 1015.5 - 0.0
31/06:00am 20.8 18.3 12.2 58 4.8 S 17 19 9 10 1015.4 1015.4 0.0
31/05:30am 20.7 19.3 13.4 63 4.2 S 13 15 7 8 1015.1 - 0.0
31/05:00am 21.4 18.5 12.3 56 5.1 S 19 20 10 11 1015.1 - 0.0
31/04:30am 21.7 19.8 14.1 62 4.4 S 17 19 9 10 1015.0 - 0.0
31/04:00am 21.8 19.7 13.7 60 4.7 S 17 20 9 11 1015.0 - 0.0
31/03:30am 21.9 20.6 14.8 64 4.2 S 15 19 8 10 1015.1 - 0.0
31/03:00am 21.8 21.1 16.3 71 3.3 S 15 17 8 9 1015.2 1015.2 0.0
31/02:30am 21.3 20.9 18.1 82 2.0 SSW 17 20 9 11 1015.4 - 0.0
31/02:00am 19.8 20.7 18.3 91 0.9 SW 11 15 6 8 1015.5 - 0.0
31/01:30am 19.8 20.4 18.5 92 0.8 WSW 13 17 7 9 1015.8 - 0.0
31/01:00am 19.0 18.8 17.5 91 0.9 WSW 15 17 8 9 1015.7 - 0.0
31/12:30am 17.5 16.3 16.0 91 0.9 W 17 17 9 9 1016.0 - 0.0
31/12:00am 18.2 17.2 16.7 91 0.9 W 17 17 9 9 1016.0 1016.0 0.0
 
Date/Time
WST
Temp
°C
App
Temp
°C
Dew
Point
Rel
Hum
%
Delta-T
°C
Wind Press
QNH
hPa
Press
MSL
hPa
Rain
since 9 am
mm
Dir
 
Spd
km/h
Gust
km/h
Spd
kts
Gust
kts
30/11:30pm 18.0 17.3 16.3 90 1.0 W 15 17 8 9 1015.9 - 0.0
30/11:00pm 18.2 17.5 16.4 89 1.1 W 15 17 8 9 1016.1 - 0.0
30/10:30pm 18.5 17.8 16.5 88 1.2 W 15 17 8 9 1016.3 - 0.0
30/10:00pm 19.2 18.4 17.0 87 1.3 W 17 17 9 9 1016.5 - 0.0
30/09:30pm 19.3 18.0 16.7 85 1.6 W 19 20 10 11 1016.7 - 0.0
30/09:00pm 19.7 18.4 16.7 83 1.8 WNW 19 20 10 11 1016.7 1016.7 0.0
30/08:30pm 19.8 18.7 16.3 80 2.1 WNW 17 19 9 10 1016.6 - 0.0
30/08:00pm 20.4 19.4 16.6 79 2.3 WNW 17 19 9 10 1016.4 - 0.0
30/07:30pm 21.6 20.8 17.0 75 2.8 WNW 17 19 9 10 1016.2 - 0.0
30/07:00pm 22.5 21.6 16.8 70 3.5 WNW 17 19 9 10 1016.0 - 0.0
30/06:30pm 23.1 21.6 14.1 57 5.3 WNW 15 17 8 9 1015.7 - 0.0
30/06:00pm 25.0 24.4 14.5 52 6.2 W 11 15 6 8 1015.5 1015.5 0.0
30/05:30pm 27.1 26.2 13.8 44 7.9 SW 11 13 6 7 1015.3 - 0.0
30/05:00pm 27.1 27.0 16.1 51 6.8 S 11 17 6 9 1015.3 - 0.0
30/04:30pm 28.7 25.7 9.4 30 10.7 SSW 15 17 8 9 1015.1 - 0.0
30/04:00pm 26.9 27.5 18.5 60 5.4 S 13 19 7 10 1015.0 - 0.0
30/03:30pm 26.9 25.9 13.3 43 8.0 S 11 13 6 7 1015.0 - 0.0
30/03:00pm 26.2 26.5 17.0 57 5.7 S 11 13 6 7 1015.1 1015.1 0.0
30/02:30pm 26.0 25.4 14.5 49 6.9 S 11 13 6 7 1015.2 - 0.0
30/02:00pm 26.2 26.0 14.6 48 6.9 S 9 11 5 6 1015.5 - 0.0
30/01:30pm 26.0 26.5 16.5 55 5.9 S 9 11 5 6 1015.9 - 0.0
30/01:00pm 25.6 25.5 15.0 52 6.4 S 9 11 5 6 1016.2 - 0.0
30/12:30pm 25.3 25.3 15.3 54 6.0 S 9 13 5 7 1016.6 - 0.0
30/12:00pm 26.2 25.5 14.3 48 7.1 SSE 11 13 6 7 1017.0 1017.0 0.0
30/11:30am 25.0 24.1 14.8 53 6.1 SSE 13 15 7 8 1017.4 - 0.0
30/11:00am 24.3 23.2 14.4 54 5.9 SSE 13 15 7 8 1017.6 - 0.0
30/10:30am 23.6 23.1 15.9 62 4.7 SSE 13 17 7 9 1017.9 - 0.0
30/10:00am 23.8 23.6 16.6 64 4.4 SSE 13 17 7 9 1018.0 - 0.0
30/09:30am 23.3 22.7 15.6 62 4.6 SSE 13 15 7 8 1018.0 - 0.0
30/09:00am 23.1 22.8 16.4 66 4.1 SSE 13 15 7 8 1018.2 1018.2 0.0
30/08:30am 22.8 23.2 17.3 71 3.4 SSE 11 13 6 7 1018.0 - 0.0
30/08:00am 22.4 23.0 17.8 75 2.9 SSE 11 13 6 7 1017.7 - 0.0
30/07:30am 21.6 21.5 17.0 75 2.8 S 13 15 7 8 1017.4 - 0.0
30/07:00am 20.8 20.6 16.6 77 2.5 S 13 15 7 8 1017.0 - 0.0
30/06:30am 20.7 19.4 15.9 74 2.9 S 17 19 9 10 1016.7 - 0.0
30/06:00am 20.5 19.8 16.5 78 2.4 S 15 17 8 9 1016.4 1016.4 0.0
30/05:30am 20.7 20.6 17.9 84 1.7 S 15 17 8 9 1016.3 - 0.0
30/05:00am 21.0 20.7 18.2 84 1.7 S 17 20 9 11 1016.3 - 0.0
30/04:30am 20.9 20.7 18.5 86 1.5 S 17 19 9 10 1016.3 - 0.0
30/04:00am 20.8 21.4 18.6 87 1.4 S 13 15 7 8 1016.4 - 0.0
30/03:30am 21.0 21.7 18.8 87 1.4 SSE 13 17 7 9 1016.5 - 0.0
30/03:00am 21.3 20.9 19.0 87 1.4 S 19 20 10 11 1016.7 1016.7 0.0
30/02:30am 21.4 21.5 19.1 87 1.5 S 17 20 9 11 1016.8 - 0.0
30/02:00am 21.6 21.3 19.2 86 1.5 S 19 22 10 12 1016.9 - 0.0
30/01:30am 21.5 21.6 19.1 86 1.5 S 17 20 9 11 1017.0 - 0.0
30/01:00am 21.7 21.9 19.4 87 1.5 S 17 19 9 10 1017.1 - 0.0
30/12:30am 19.6 20.6 17.7 89 1.2 SSW 9 11 5 6 1017.2 - 0.0
30/12:00am 18.1 18.4 16.1 88 1.2 SW 9 13 5 7 1017.2 1017.2 0.0
 
Date/Time
WST
Temp
°C
App
Temp
°C
Dew
Point
Rel
Hum
%
Delta-T
°C
Wind Press
QNH
hPa
Press
MSL
hPa
Rain
since 9 am
mm
Dir
 
Spd
km/h
Gust
km/h
Spd
kts
Gust
kts
29/11:30pm 17.9 17.7 15.7 87 1.3 WSW 11 11 6 6 1017.3 - 0.0
29/11:00pm 18.2 17.7 16.0 87 1.3 WSW 13 15 7 8 1017.4 - 0.0
29/10:30pm 18.3 17.3 15.7 85 1.5 W 15 17 8 9 1017.5 - 0.0
29/10:00pm 18.5 17.1 15.6 83 1.7 W 17 19 9 10 1017.4 - 0.0
29/09:30pm 18.3 16.7 15.0 81 1.9 WNW 17 19 9 10 1017.5 - 0.0
29/09:00pm 18.5 16.8 14.6 78 2.3 WNW 17 19 9 10 1017.4 1017.4 0.0
29/08:30pm 19.6 17.9 15.7 78 2.3 NW 19 20 10 11 1017.3 - 0.0
29/08:00pm 19.8 18.3 15.2 75 2.7 NW 17 19 9 10 1017.0 - 0.0
29/07:30pm 20.0 18.4 13.9 68 3.5 NW 15 19 8 10 1016.8 - 0.0

Other Formats:

Comma delimited format used in spreadsheet applications
http://www.bom.gov.au/fwo/IDW60801/IDW60801.95304.axf

JavaScript Object Notation format (JSON) in row-major order
http://www.bom.gov.au/fwo/IDW60801/IDW60801.95304.json